sensor_id;sensor_type;location;lat;lon;timestamp;temperature;humidity
530;DHT22;251;48.704;9.210;2023-08-24T00:01:51;19.20;40.70
530;DHT22;251;48.704;9.210;2023-08-24T00:04:18;19.20;41.10
530;DHT22;251;48.704;9.210;2023-08-24T00:06:45;19.20;41.70
530;DHT22;251;48.704;9.210;2023-08-24T00:09:12;19.20;41.00
530;DHT22;251;48.704;9.210;2023-08-24T00:11:40;19.20;41.10
530;DHT22;251;48.704;9.210;2023-08-24T00:14:07;19.10;41.70
530;DHT22;251;48.704;9.210;2023-08-24T00:16:35;19.10;41.30
530;DHT22;251;48.704;9.210;2023-08-24T00:19:02;19.10;40.90
530;DHT22;251;48.704;9.210;2023-08-24T00:21:29;19.00;41.70
530;DHT22;251;48.704;9.210;2023-08-24T00:23:56;18.90;42.60
530;DHT22;251;48.704;9.210;2023-08-24T00:26:23;18.90;42.40
530;DHT22;251;48.704;9.210;2023-08-24T00:28:50;18.90;42.50
530;DHT22;251;48.704;9.210;2023-08-24T00:31:19;18.90;43.40
530;DHT22;251;48.704;9.210;2023-08-24T00:33:49;18.90;43.30
530;DHT22;251;48.704;9.210;2023-08-24T00:36:16;18.90;44.10
530;DHT22;251;48.704;9.210;2023-08-24T00:38:44;18.90;43.40
530;DHT22;251;48.704;9.210;2023-08-24T00:41:16;18.90;43.10
530;DHT22;251;48.704;9.210;2023-08-24T00:43:43;18.90;43.30
530;DHT22;251;48.704;9.210;2023-08-24T00:46:10;18.80;43.40
530;DHT22;251;48.704;9.210;2023-08-24T00:48:36;18.80;44.60
530;DHT22;251;48.704;9.210;2023-08-24T00:51:05;18.80;44.30
530;DHT22;251;48.704;9.210;2023-08-24T00:53:31;18.70;44.50
530;DHT22;251;48.704;9.210;2023-08-24T00:55:59;18.70;45.10
530;DHT22;251;48.704;9.210;2023-08-24T00:58:27;18.70;46.00
530;DHT22;251;48.704;9.210;2023-08-24T01:00:55;18.70;45.70
530;DHT22;251;48.704;9.210;2023-08-24T01:03:23;18.60;44.20
530;DHT22;251;48.704;9.210;2023-08-24T01:05:51;18.60;44.50
530;DHT22;251;48.704;9.210;2023-08-24T01:08:19;18.60;45.30
530;DHT22;251;48.704;9.210;2023-08-24T01:10:51;18.60;45.60
530;DHT22;251;48.704;9.210;2023-08-24T01:13:25;18.50;45.40
530;DHT22;251;48.704;9.210;2023-08-24T01:16:01;18.50;45.80
530;DHT22;251;48.704;9.210;2023-08-24T01:18:31;18.50;45.60
530;DHT22;251;48.704;9.210;2023-08-24T01:21:01;18.40;45.40
530;DHT22;251;48.704;9.210;2023-08-24T01:23:37;18.40;46.90
530;DHT22;251;48.704;9.210;2023-08-24T01:26:12;18.40;45.70
530;DHT22;251;48.704;9.210;2023-08-24T01:28:42;18.40;46.70
530;DHT22;251;48.704;9.210;2023-08-24T01:31:09;18.40;46.50
530;DHT22;251;48.704;9.210;2023-08-24T01:33:36;18.30;46.10
530;DHT22;251;48.704;9.210;2023-08-24T01:36:03;18.30;46.40
530;DHT22;251;48.704;9.210;2023-08-24T01:38:30;18.20;46.60
530;DHT22;251;48.704;9.210;2023-08-24T01:41:04;18.20;47.00
530;DHT22;251;48.704;9.210;2023-08-24T01:43:36;18.20;48.10
530;DHT22;251;48.704;9.210;2023-08-24T01:46:04;18.20;47.00
530;DHT22;251;48.704;9.210;2023-08-24T01:48:31;18.20;48.90
530;DHT22;251;48.704;9.210;2023-08-24T01:51:00;18.10;48.90
530;DHT22;251;48.704;9.210;2023-08-24T01:53:29;18.10;48.80
530;DHT22;251;48.704;9.210;2023-08-24T01:55:56;18.10;48.90
530;DHT22;251;48.704;9.210;2023-08-24T01:58:23;18.10;48.20
530;DHT22;251;48.704;9.210;2023-08-24T02:00:51;18.10;48.90
530;DHT22;251;48.704;9.210;2023-08-24T02:03:18;18.00;49.60
530;DHT22;251;48.704;9.210;2023-08-24T02:05:45;18.00;50.00
530;DHT22;251;48.704;9.210;2023-08-24T02:08:11;18.00;50.10
530;DHT22;251;48.704;9.210;2023-08-24T02:10:38;18.00;49.80
530;DHT22;251;48.704;9.210;2023-08-24T02:13:05;18.00;50.80
530;DHT22;251;48.704;9.210;2023-08-24T02:15:32;18.00;49.30
530;DHT22;251;48.704;9.210;2023-08-24T02:18:00;17.90;49.90
530;DHT22;251;48.704;9.210;2023-08-24T02:20:27;18.00;52.40
530;DHT22;251;48.704;9.210;2023-08-24T02:22:53;18.00;51.20
530;DHT22;251;48.704;9.210;2023-08-24T02:25:20;17.90;50.90
530;DHT22;251;48.704;9.210;2023-08-24T02:27:47;17.90;51.40
530;DHT22;251;48.704;9.210;2023-08-24T02:30:14;17.90;51.20
530;DHT22;251;48.704;9.210;2023-08-24T02:32:41;17.90;52.10
530;DHT22;251;48.704;9.210;2023-08-24T02:35:10;17.80;51.60
530;DHT22;251;48.704;9.210;2023-08-24T02:37:36;17.80;52.40
530;DHT22;251;48.704;9.210;2023-08-24T02:40:04;17.80;52.50
530;DHT22;251;48.704;9.210;2023-08-24T02:42:33;17.80;51.90
530;DHT22;251;48.704;9.210;2023-08-24T02:45:00;17.80;53.20
530;DHT22;251;48.704;9.210;2023-08-24T02:47:26;17.80;53.30
530;DHT22;251;48.704;9.210;2023-08-24T02:49:53;17.80;52.90
530;DHT22;251;48.704;9.210;2023-08-24T02:52:21;17.80;53.30
530;DHT22;251;48.704;9.210;2023-08-24T02:54:49;17.80;54.30
530;DHT22;251;48.704;9.210;2023-08-24T02:57:16;17.80;55.00
530;DHT22;251;48.704;9.210;2023-08-24T02:59:42;17.80;54.60
530;DHT22;251;48.704;9.210;2023-08-24T03:02:10;17.80;54.00
530;DHT22;251;48.704;9.210;2023-08-24T03:04:37;17.80;54.60
530;DHT22;251;48.704;9.210;2023-08-24T03:07:03;17.80;54.90
530;DHT22;251;48.704;9.210;2023-08-24T03:09:35;17.80;54.50
530;DHT22;251;48.704;9.210;2023-08-24T03:12:03;17.80;55.70
530;DHT22;251;48.704;9.210;2023-08-24T03:14:29;17.80;55.50
530;DHT22;251;48.704;9.210;2023-08-24T03:16:56;17.80;55.70
530;DHT22;251;48.704;9.210;2023-08-24T03:19:23;17.80;53.40
530;DHT22;251;48.704;9.210;2023-08-24T03:21:50;17.70;55.40
530;DHT22;251;48.704;9.210;2023-08-24T03:24:17;17.70;56.70
530;DHT22;251;48.704;9.210;2023-08-24T03:26:46;17.70;56.90
530;DHT22;251;48.704;9.210;2023-08-24T03:29:14;17.70;57.70
530;DHT22;251;48.704;9.210;2023-08-24T03:31:41;17.70;58.40
530;DHT22;251;48.704;9.210;2023-08-24T03:34:08;17.80;58.90
530;DHT22;251;48.704;9.210;2023-08-24T03:36:34;17.80;58.50
530;DHT22;251;48.704;9.210;2023-08-24T03:39:01;17.80;58.50
530;DHT22;251;48.704;9.210;2023-08-24T03:41:29;17.70;58.90
530;DHT22;251;48.704;9.210;2023-08-24T03:43:59;17.70;59.30
530;DHT22;251;48.704;9.210;2023-08-24T03:46:25;17.80;60.80
530;DHT22;251;48.704;9.210;2023-08-24T03:48:52;17.80;58.20
530;DHT22;251;48.704;9.210;2023-08-24T03:51:19;17.80;56.40
530;DHT22;251;48.704;9.210;2023-08-24T03:53:46;17.80;57.90
530;DHT22;251;48.704;9.210;2023-08-24T03:56:13;17.80;59.80
530;DHT22;251;48.704;9.210;2023-08-24T03:58:41;17.80;61.20
530;DHT22;251;48.704;9.210;2023-08-24T04:01:11;17.80;59.80
530;DHT22;251;48.704;9.210;2023-08-24T04:03:38;17.80;59.40
530;DHT22;251;48.704;9.210;2023-08-24T04:06:05;17.90;59.80
530;DHT22;251;48.704;9.210;2023-08-24T04:08:33;17.80;60.00
530;DHT22;251;48.704;9.210;2023-08-24T04:11:00;17.80;59.10
530;DHT22;251;48.704;9.210;2023-08-24T04:13:27;17.80;59.20
530;DHT22;251;48.704;9.210;2023-08-24T04:15:54;17.90;59.60
530;DHT22;251;48.704;9.210;2023-08-24T04:18:22;17.80;59.80
530;DHT22;251;48.704;9.210;2023-08-24T04:20:52;17.90;60.60
530;DHT22;251;48.704;9.210;2023-08-24T04:23:24;17.90;61.50
530;DHT22;251;48.704;9.210;2023-08-24T04:25:51;17.90;62.50
530;DHT22;251;48.704;9.210;2023-08-24T04:28:17;17.90;62.40
530;DHT22;251;48.704;9.210;2023-08-24T04:30:49;17.90;61.70
530;DHT22;251;48.704;9.210;2023-08-24T04:33:16;17.90;61.90
530;DHT22;251;48.704;9.210;2023-08-24T04:35:46;17.90;63.20
530;DHT22;251;48.704;9.210;2023-08-24T04:38:13;18.00;63.70
530;DHT22;251;48.704;9.210;2023-08-24T04:40:48;18.00;63.30
530;DHT22;251;48.704;9.210;2023-08-24T04:43:15;18.00;62.70
530;DHT22;251;48.704;9.210;2023-08-24T04:45:41;18.00;63.80
530;DHT22;251;48.704;9.210;2023-08-24T04:48:08;18.00;63.40
530;DHT22;251;48.704;9.210;2023-08-24T04:50:35;18.00;64.40
530;DHT22;251;48.704;9.210;2023-08-24T04:53:03;18.00;65.30
530;DHT22;251;48.704;9.210;2023-08-24T04:55:30;18.00;65.00
530;DHT22;251;48.704;9.210;2023-08-24T04:57:57;18.00;64.70
530;DHT22;251;48.704;9.210;2023-08-24T05:00:23;18.00;63.00
530;DHT22;251;48.704;9.210;2023-08-24T05:02:51;18.00;63.10
530;DHT22;251;48.704;9.210;2023-08-24T05:05:18;18.00;63.40
530;DHT22;251;48.704;9.210;2023-08-24T05:07:44;18.00;63.30
530;DHT22;251;48.704;9.210;2023-08-24T05:10:13;18.10;63.80
530;DHT22;251;48.704;9.210;2023-08-24T05:12:39;18.10;65.40
530;DHT22;251;48.704;9.210;2023-08-24T05:15:07;18.10;64.50
530;DHT22;251;48.704;9.210;2023-08-24T05:17:34;18.10;65.20
530;DHT22;251;48.704;9.210;2023-08-24T05:20:01;18.20;64.20
530;DHT22;251;48.704;9.210;2023-08-24T05:22:28;18.20;65.00
530;DHT22;251;48.704;9.210;2023-08-24T05:24:55;18.30;64.10
530;DHT22;251;48.704;9.210;2023-08-24T05:27:23;18.30;65.50
530;DHT22;251;48.704;9.210;2023-08-24T05:29:50;18.30;64.20
530;DHT22;251;48.704;9.210;2023-08-24T05:32:17;18.40;66.10
530;DHT22;251;48.704;9.210;2023-08-24T05:34:45;18.50;66.30
530;DHT22;251;48.704;9.210;2023-08-24T05:37:12;18.50;64.30
530;DHT22;251;48.704;9.210;2023-08-24T05:39:39;18.60;63.20
530;DHT22;251;48.704;9.210;2023-08-24T05:42:06;18.70;62.90
530;DHT22;251;48.704;9.210;2023-08-24T05:44:34;18.70;64.00
530;DHT22;251;48.704;9.210;2023-08-24T05:47:01;18.80;64.10
530;DHT22;251;48.704;9.210;2023-08-24T05:49:28;18.80;61.80
530;DHT22;251;48.704;9.210;2023-08-24T05:51:54;18.90;63.10
530;DHT22;251;48.704;9.210;2023-08-24T05:54:21;18.90;64.10
530;DHT22;251;48.704;9.210;2023-08-24T05:56:49;19.00;62.00
530;DHT22;251;48.704;9.210;2023-08-24T05:59:16;19.10;62.10
530;DHT22;251;48.704;9.210;2023-08-24T06:01:44;19.20;65.20
530;DHT22;251;48.704;9.210;2023-08-24T06:04:11;19.30;66.30
530;DHT22;251;48.704;9.210;2023-08-24T06:06:38;19.50;64.00
530;DHT22;251;48.704;9.210;2023-08-24T06:09:05;19.50;61.50
530;DHT22;251;48.704;9.210;2023-08-24T06:11:32;19.60;58.40
530;DHT22;251;48.704;9.210;2023-08-24T06:13:59;19.70;56.10
530;DHT22;251;48.704;9.210;2023-08-24T06:16:26;19.80;50.60
530;DHT22;251;48.704;9.210;2023-08-24T06:18:54;19.90;57.70
530;DHT22;251;48.704;9.210;2023-08-24T06:21:21;20.00;55.60
530;DHT22;251;48.704;9.210;2023-08-24T06:23:47;20.10;54.60
530;DHT22;251;48.704;9.210;2023-08-24T06:26:14;20.10;50.00
530;DHT22;251;48.704;9.210;2023-08-24T06:28:41;20.20;48.00
530;DHT22;251;48.704;9.210;2023-08-24T06:31:08;20.30;51.90
530;DHT22;251;48.704;9.210;2023-08-24T06:33:35;20.30;56.20
530;DHT22;251;48.704;9.210;2023-08-24T06:36:04;20.40;57.40
530;DHT22;251;48.704;9.210;2023-08-24T06:38:31;20.40;59.00
530;DHT22;251;48.704;9.210;2023-08-24T06:40:58;20.40;60.10
530;DHT22;251;48.704;9.210;2023-08-24T06:43:25;20.50;60.00
530;DHT22;251;48.704;9.210;2023-08-24T06:45:53;20.50;56.00
530;DHT22;251;48.704;9.210;2023-08-24T06:48:20;20.50;51.80
530;DHT22;251;48.704;9.210;2023-08-24T06:50:47;20.50;49.10
530;DHT22;251;48.704;9.210;2023-08-24T06:53:15;20.60;54.70
530;DHT22;251;48.704;9.210;2023-08-24T06:55:42;20.60;57.50
530;DHT22;251;48.704;9.210;2023-08-24T06:58:10;20.60;59.40
530;DHT22;251;48.704;9.210;2023-08-24T07:00:37;20.70;49.30
530;DHT22;251;48.704;9.210;2023-08-24T07:03:05;20.70;51.70
530;DHT22;251;48.704;9.210;2023-08-24T07:05:32;20.80;53.80
530;DHT22;251;48.704;9.210;2023-08-24T07:07:59;20.90;52.00
530;DHT22;251;48.704;9.210;2023-08-24T07:10:27;21.00;49.10
530;DHT22;251;48.704;9.210;2023-08-24T07:12:54;21.10;45.00
530;DHT22;251;48.704;9.210;2023-08-24T07:15:21;21.20;33.70
530;DHT22;251;48.704;9.210;2023-08-24T07:17:48;21.30;33.90
530;DHT22;251;48.704;9.210;2023-08-24T07:20:14;21.40;36.10
530;DHT22;251;48.704;9.210;2023-08-24T07:22:41;21.50;33.70
530;DHT22;251;48.704;9.210;2023-08-24T07:25:09;21.70;32.10
530;DHT22;251;48.704;9.210;2023-08-24T07:27:38;21.70;30.80
530;DHT22;251;48.704;9.210;2023-08-24T07:30:06;21.90;28.40
530;DHT22;251;48.704;9.210;2023-08-24T07:32:33;22.00;30.20
530;DHT22;251;48.704;9.210;2023-08-24T07:35:00;22.10;29.70
530;DHT22;251;48.704;9.210;2023-08-24T07:37:27;22.20;28.70
530;DHT22;251;48.704;9.210;2023-08-24T07:39:54;22.30;26.90
530;DHT22;251;48.704;9.210;2023-08-24T07:42:21;22.40;26.60
530;DHT22;251;48.704;9.210;2023-08-24T07:44:50;22.40;27.40
530;DHT22;251;48.704;9.210;2023-08-24T07:47:16;22.40;26.70
530;DHT22;251;48.704;9.210;2023-08-24T07:49:43;22.50;27.90
530;DHT22;251;48.704;9.210;2023-08-24T07:52:10;22.50;27.00
530;DHT22;251;48.704;9.210;2023-08-24T07:54:37;22.60;28.20
530;DHT22;251;48.704;9.210;2023-08-24T07:57:04;22.70;27.70
530;DHT22;251;48.704;9.210;2023-08-24T07:59:31;22.70;26.40
530;DHT22;251;48.704;9.210;2023-08-24T08:02:00;22.90;26.50
530;DHT22;251;48.704;9.210;2023-08-24T08:04:26;23.00;25.60
530;DHT22;251;48.704;9.210;2023-08-24T08:06:53;23.10;26.20
530;DHT22;251;48.704;9.210;2023-08-24T08:09:21;23.20;27.70
530;DHT22;251;48.704;9.210;2023-08-24T08:11:48;23.40;26.30
530;DHT22;251;48.704;9.210;2023-08-24T08:14:15;23.50;25.80
530;DHT22;251;48.704;9.210;2023-08-24T08:16:42;23.70;25.30
530;DHT22;251;48.704;9.210;2023-08-24T08:19:10;23.80;23.60
530;DHT22;251;48.704;9.210;2023-08-24T08:21:37;23.90;21.30
530;DHT22;251;48.704;9.210;2023-08-24T08:24:04;24.00;22.40
530;DHT22;251;48.704;9.210;2023-08-24T08:26:30;24.20;23.60
530;DHT22;251;48.704;9.210;2023-08-24T08:28:57;24.30;21.90
530;DHT22;251;48.704;9.210;2023-08-24T08:31:24;24.40;21.10
530;DHT22;251;48.704;9.210;2023-08-24T08:33:51;24.60;21.10
530;DHT22;251;48.704;9.210;2023-08-24T08:36:19;24.70;19.30
530;DHT22;251;48.704;9.210;2023-08-24T08:38:46;24.80;19.40
530;DHT22;251;48.704;9.210;2023-08-24T08:41:12;25.00;19.40
530;DHT22;251;48.704;9.210;2023-08-24T08:43:41;25.10;17.90
530;DHT22;251;48.704;9.210;2023-08-24T08:46:08;25.20;17.70
530;DHT22;251;48.704;9.210;2023-08-24T08:48:37;25.30;17.30
530;DHT22;251;48.704;9.210;2023-08-24T08:51:07;25.50;17.40
530;DHT22;251;48.704;9.210;2023-08-24T08:53:35;25.50;15.70
530;DHT22;251;48.704;9.210;2023-08-24T08:56:03;25.60;15.90
530;DHT22;251;48.704;9.210;2023-08-24T08:58:31;25.70;15.30
530;DHT22;251;48.704;9.210;2023-08-24T09:00:58;25.80;15.10
530;DHT22;251;48.704;9.210;2023-08-24T09:03:29;25.80;15.80
530;DHT22;251;48.704;9.210;2023-08-24T09:05:57;25.90;15.90
530;DHT22;251;48.704;9.210;2023-08-24T09:08:25;25.90;14.10
530;DHT22;251;48.704;9.210;2023-08-24T09:10:55;25.90;14.40
530;DHT22;251;48.704;9.210;2023-08-24T09:13:21;26.00;15.60
530;DHT22;251;48.704;9.210;2023-08-24T09:15:51;26.10;16.00
530;DHT22;251;48.704;9.210;2023-08-24T09:18:18;26.10;13.60
530;DHT22;251;48.704;9.210;2023-08-24T09:20:46;26.20;14.50
530;DHT22;251;48.704;9.210;2023-08-24T09:23:17;26.30;13.70
530;DHT22;251;48.704;9.210;2023-08-24T09:25:46;26.30;13.60
530;DHT22;251;48.704;9.210;2023-08-24T09:28:21;26.40;14.60
530;DHT22;251;48.704;9.210;2023-08-24T09:30:52;26.50;13.50
530;DHT22;251;48.704;9.210;2023-08-24T09:33:19;26.60;14.70
530;DHT22;251;48.704;9.210;2023-08-24T09:35:52;26.70;13.50
530;DHT22;251;48.704;9.210;2023-08-24T09:38:21;26.80;12.80
530;DHT22;251;48.704;9.210;2023-08-24T09:40:51;26.90;12.90
530;DHT22;251;48.704;9.210;2023-08-24T09:43:19;27.00;13.40
530;DHT22;251;48.704;9.210;2023-08-24T09:45:50;27.10;13.20
530;DHT22;251;48.704;9.210;2023-08-24T09:48:17;27.20;11.90
530;DHT22;251;48.704;9.210;2023-08-24T09:50:45;27.20;13.10
530;DHT22;251;48.704;9.210;2023-08-24T09:53:16;27.30;12.60
530;DHT22;251;48.704;9.210;2023-08-24T09:55:49;27.40;11.70
530;DHT22;251;48.704;9.210;2023-08-24T09:58:16;27.50;11.30
530;DHT22;251;48.704;9.210;2023-08-24T10:00:46;27.50;11.90
530;DHT22;251;48.704;9.210;2023-08-24T10:03:16;27.60;11.30
530;DHT22;251;48.704;9.210;2023-08-24T10:05:50;27.70;12.10
530;DHT22;251;48.704;9.210;2023-08-24T10:08:21;27.80;12.50
530;DHT22;251;48.704;9.210;2023-08-24T10:10:53;27.80;12.10
530;DHT22;251;48.704;9.210;2023-08-24T10:13:26;27.90;11.80
530;DHT22;251;48.704;9.210;2023-08-24T10:15:57;28.00;13.20
530;DHT22;251;48.704;9.210;2023-08-24T10:18:26;28.10;12.20
530;DHT22;251;48.704;9.210;2023-08-24T10:20:53;28.20;12.60
530;DHT22;251;48.704;9.210;2023-08-24T10:23:20;28.30;12.50
530;DHT22;251;48.704;9.210;2023-08-24T10:25:51;28.50;12.40
530;DHT22;251;48.704;9.210;2023-08-24T10:28:18;28.60;11.70
530;DHT22;251;48.704;9.210;2023-08-24T10:30:47;28.80;12.20
530;DHT22;251;48.704;9.210;2023-08-24T10:33:16;28.90;11.30
530;DHT22;251;48.704;9.210;2023-08-24T10:35:45;29.00;11.60
530;DHT22;251;48.704;9.210;2023-08-24T10:38:23;29.20;11.50
530;DHT22;251;48.704;9.210;2023-08-24T10:40:53;29.30;10.90
530;DHT22;251;48.704;9.210;2023-08-24T10:43:20;29.50;11.20
530;DHT22;251;48.704;9.210;2023-08-24T10:45:57;29.60;11.70
530;DHT22;251;48.704;9.210;2023-08-24T10:48:27;29.70;11.20
530;DHT22;251;48.704;9.210;2023-08-24T10:51:19;29.80;10.80
530;DHT22;251;48.704;9.210;2023-08-24T10:53:50;29.90;11.30
530;DHT22;251;48.704;9.210;2023-08-24T10:56:18;30.00;11.90
530;DHT22;251;48.704;9.210;2023-08-24T10:58:46;30.20;12.60
530;DHT22;251;48.704;9.210;2023-08-24T11:01:16;30.20;11.00
530;DHT22;251;48.704;9.210;2023-08-24T11:03:50;30.30;12.60
530;DHT22;251;48.704;9.210;2023-08-24T11:06:18;30.50;10.40
530;DHT22;251;48.704;9.210;2023-08-24T11:08:46;30.50;10.60
530;DHT22;251;48.704;9.210;2023-08-24T11:11:18;30.60;9.70
530;DHT22;251;48.704;9.210;2023-08-24T11:14:15;30.70;10.70
530;DHT22;251;48.704;9.210;2023-08-24T11:16:45;30.80;10.60
530;DHT22;251;48.704;9.210;2023-08-24T11:19:14;31.00;10.70
530;DHT22;251;48.704;9.210;2023-08-24T11:21:44;31.00;10.70
530;DHT22;251;48.704;9.210;2023-08-24T11:24:13;31.20;8.20
530;DHT22;251;48.704;9.210;2023-08-24T11:26:41;31.20;8.50
530;DHT22;251;48.704;9.210;2023-08-24T11:29:08;31.30;8.20
530;DHT22;251;48.704;9.210;2023-08-24T11:31:36;31.30;8.60
530;DHT22;251;48.704;9.210;2023-08-24T11:34:03;31.50;8.50
530;DHT22;251;48.704;9.210;2023-08-24T11:36:32;31.60;8.10
530;DHT22;251;48.704;9.210;2023-08-24T11:39:07;31.70;7.70
530;DHT22;251;48.704;9.210;2023-08-24T11:41:40;31.80;7.90
530;DHT22;251;48.704;9.210;2023-08-24T11:44:07;31.90;8.20
530;DHT22;251;48.704;9.210;2023-08-24T11:46:34;32.10;8.10
530;DHT22;251;48.704;9.210;2023-08-24T11:49:01;32.30;6.30
530;DHT22;251;48.704;9.210;2023-08-24T11:51:27;32.40;6.30
530;DHT22;251;48.704;9.210;2023-08-24T11:53:56;32.60;7.10
530;DHT22;251;48.704;9.210;2023-08-24T11:56:23;32.70;7.50
530;DHT22;251;48.704;9.210;2023-08-24T11:58:50;32.80;7.60
530;DHT22;251;48.704;9.210;2023-08-24T12:01:17;33.00;5.70
530;DHT22;251;48.704;9.210;2023-08-24T12:03:44;33.10;5.80
530;DHT22;251;48.704;9.210;2023-08-24T12:06:12;33.30;6.50
530;DHT22;251;48.704;9.210;2023-08-24T12:08:40;33.40;4.90
530;DHT22;251;48.704;9.210;2023-08-24T12:11:12;33.20;3.90
530;DHT22;251;48.704;9.210;2023-08-24T12:13:43;33.10;4.70
530;DHT22;251;48.704;9.210;2023-08-24T12:16:12;33.10;5.10
530;DHT22;251;48.704;9.210;2023-08-24T12:18:47;33.30;4.80
530;DHT22;251;48.704;9.210;2023-08-24T12:21:14;33.40;5.30
530;DHT22;251;48.704;9.210;2023-08-24T12:23:41;33.50;4.40
530;DHT22;251;48.704;9.210;2023-08-24T12:26:07;33.50;4.40
530;DHT22;251;48.704;9.210;2023-08-24T12:28:38;33.40;5.50
530;DHT22;251;48.704;9.210;2023-08-24T12:31:05;33.70;5.00
530;DHT22;251;48.704;9.210;2023-08-24T12:33:32;34.00;6.60
530;DHT22;251;48.704;9.210;2023-08-24T12:35:59;34.30;3.00
530;DHT22;251;48.704;9.210;2023-08-24T12:38:26;34.60;3.40
530;DHT22;251;48.704;9.210;2023-08-24T12:40:53;35.00;3.00
530;DHT22;251;48.704;9.210;2023-08-24T12:43:20;35.30;2.30
530;DHT22;251;48.704;9.210;2023-08-24T12:45:48;35.50;1.10
530;DHT22;251;48.704;9.210;2023-08-24T12:48:15;35.60;2.00
530;DHT22;251;48.704;9.210;2023-08-24T12:50:42;35.70;2.10
530;DHT22;251;48.704;9.210;2023-08-24T12:53:09;35.80;1.90
530;DHT22;251;48.704;9.210;2023-08-24T12:55:38;35.80;1.40
530;DHT22;251;48.704;9.210;2023-08-24T12:58:05;35.80;1.00
530;DHT22;251;48.704;9.210;2023-08-24T13:00:32;35.90;2.60
530;DHT22;251;48.704;9.210;2023-08-24T13:03:00;36.10;1.20
530;DHT22;251;48.704;9.210;2023-08-24T13:05:30;36.30;1.00
530;DHT22;251;48.704;9.210;2023-08-24T13:07:57;36.60;1.00
530;DHT22;251;48.704;9.210;2023-08-24T13:10:23;36.90;1.00
530;DHT22;251;48.704;9.210;2023-08-24T13:12:51;37.10;1.00
530;DHT22;251;48.704;9.210;2023-08-24T13:15:18;37.50;1.00
530;DHT22;251;48.704;9.210;2023-08-24T13:17:45;37.60;1.00
530;DHT22;251;48.704;9.210;2023-08-24T13:20:13;37.80;1.00
530;DHT22;251;48.704;9.210;2023-08-24T13:22:42;38.00;1.00
530;DHT22;251;48.704;9.210;2023-08-24T13:25:10;38.10;1.00
530;DHT22;251;48.704;9.210;2023-08-24T13:27:36;38.40;1.00
530;DHT22;251;48.704;9.210;2023-08-24T13:30:04;38.40;1.00
530;DHT22;251;48.704;9.210;2023-08-24T13:32:31;38.10;1.00
530;DHT22;251;48.704;9.210;2023-08-24T13:34:59;37.80;1.00
530;DHT22;251;48.704;9.210;2023-08-24T13:37:27;37.60;1.00
530;DHT22;251;48.704;9.210;2023-08-24T13:39:54;37.20;1.00
530;DHT22;251;48.704;9.210;2023-08-24T13:42:21;36.80;1.00
530;DHT22;251;48.704;9.210;2023-08-24T13:44:48;36.80;1.00
530;DHT22;251;48.704;9.210;2023-08-24T13:47:15;37.30;1.00
530;DHT22;251;48.704;9.210;2023-08-24T13:49:41;37.90;1.00
530;DHT22;251;48.704;9.210;2023-08-24T13:52:08;38.20;1.00
530;DHT22;251;48.704;9.210;2023-08-24T13:54:37;38.20;1.00
530;DHT22;251;48.704;9.210;2023-08-24T13:57:03;38.10;1.00
530;DHT22;251;48.704;9.210;2023-08-24T13:59:31;38.60;1.00
530;DHT22;251;48.704;9.210;2023-08-24T14:01:58;39.10;1.00
530;DHT22;251;48.704;9.210;2023-08-24T14:04:25;39.60;1.00
530;DHT22;251;48.704;9.210;2023-08-24T14:06:52;39.60;1.00
530;DHT22;251;48.704;9.210;2023-08-24T14:09:19;39.60;1.00
530;DHT22;251;48.704;9.210;2023-08-24T14:11:47;39.70;1.00
530;DHT22;251;48.704;9.210;2023-08-24T14:14:14;40.00;1.00
530;DHT22;251;48.704;9.210;2023-08-24T14:16:41;40.00;1.00
530;DHT22;251;48.704;9.210;2023-08-24T14:19:07;39.60;1.00
530;DHT22;251;48.704;9.210;2023-08-24T14:21:35;39.30;1.00
530;DHT22;251;48.704;9.210;2023-08-24T14:24:02;38.80;1.00
530;DHT22;251;48.704;9.210;2023-08-24T14:26:29;38.40;1.00
530;DHT22;251;48.704;9.210;2023-08-24T14:28:58;37.80;1.00
530;DHT22;251;48.704;9.210;2023-08-24T14:31:26;37.20;1.00
530;DHT22;251;48.704;9.210;2023-08-24T14:33:53;36.80;1.00
530;DHT22;251;48.704;9.210;2023-08-24T14:36:20;36.20;1.00
530;DHT22;251;48.704;9.210;2023-08-24T14:38:47;35.80;1.00
530;DHT22;251;48.704;9.210;2023-08-24T14:41:15;35.40;1.00
530;DHT22;251;48.704;9.210;2023-08-24T14:43:42;34.90;1.00
530;DHT22;251;48.704;9.210;2023-08-24T14:46:10;34.50;1.00
530;DHT22;251;48.704;9.210;2023-08-24T14:48:37;34.20;1.00
530;DHT22;251;48.704;9.210;2023-08-24T14:51:04;33.80;1.00
530;DHT22;251;48.704;9.210;2023-08-24T14:53:31;33.50;1.00
530;DHT22;251;48.704;9.210;2023-08-24T14:55:58;33.30;1.00
530;DHT22;251;48.704;9.210;2023-08-24T14:58:26;33.10;1.30
530;DHT22;251;48.704;9.210;2023-08-24T15:00:56;32.90;1.00
530;DHT22;251;48.704;9.210;2023-08-24T15:03:24;32.80;2.00
530;DHT22;251;48.704;9.210;2023-08-24T15:05:58;32.60;2.50
530;DHT22;251;48.704;9.210;2023-08-24T15:08:26;32.40;2.50
530;DHT22;251;48.704;9.210;2023-08-24T15:10:55;32.10;4.50
530;DHT22;251;48.704;9.210;2023-08-24T15:13:23;31.60;6.70
530;DHT22;251;48.704;9.210;2023-08-24T15:15:50;31.20;8.00
530;DHT22;251;48.704;9.210;2023-08-24T15:18:16;30.80;10.60
530;DHT22;251;48.704;9.210;2023-08-24T15:20:45;30.30;11.60
530;DHT22;251;48.704;9.210;2023-08-24T15:23:23;30.00;13.30
530;DHT22;251;48.704;9.210;2023-08-24T15:25:50;29.40;13.70
530;DHT22;251;48.704;9.210;2023-08-24T15:28:17;28.70;14.20
530;DHT22;251;48.704;9.210;2023-08-24T15:30:44;28.50;15.60
530;DHT22;251;48.704;9.210;2023-08-24T15:33:10;28.30;15.80
530;DHT22;251;48.704;9.210;2023-08-24T15:35:39;28.20;16.10
530;DHT22;251;48.704;9.210;2023-08-24T15:38:08;28.20;16.00
530;DHT22;251;48.704;9.210;2023-08-24T15:40:35;28.10;15.80
530;DHT22;251;48.704;9.210;2023-08-24T15:43:03;28.20;16.20
530;DHT22;251;48.704;9.210;2023-08-24T15:45:31;28.40;16.90
530;DHT22;251;48.704;9.210;2023-08-24T15:47:59;28.40;16.90
530;DHT22;251;48.704;9.210;2023-08-24T15:50:26;28.30;16.20
530;DHT22;251;48.704;9.210;2023-08-24T15:52:53;28.00;16.60
530;DHT22;251;48.704;9.210;2023-08-24T15:55:27;27.90;17.40
530;DHT22;251;48.704;9.210;2023-08-24T15:57:54;27.70;17.50
530;DHT22;251;48.704;9.210;2023-08-24T16:00:21;27.70;17.70
530;DHT22;251;48.704;9.210;2023-08-24T16:02:49;27.70;16.70
530;DHT22;251;48.704;9.210;2023-08-24T16:05:16;27.50;17.00
530;DHT22;251;48.704;9.210;2023-08-24T16:07:42;27.50;16.90
530;DHT22;251;48.704;9.210;2023-08-24T16:10:10;27.50;16.60
530;DHT22;251;48.704;9.210;2023-08-24T16:12:38;27.60;15.80
530;DHT22;251;48.704;9.210;2023-08-24T16:15:06;28.10;15.90
530;DHT22;251;48.704;9.210;2023-08-24T16:17:33;28.30;13.90
530;DHT22;251;48.704;9.210;2023-08-24T16:20:03;28.50;13.60
530;DHT22;251;48.704;9.210;2023-08-24T16:22:32;28.60;14.00
530;DHT22;251;48.704;9.210;2023-08-24T16:24:59;28.50;13.20
530;DHT22;251;48.704;9.210;2023-08-24T16:27:25;28.40;14.80
530;DHT22;251;48.704;9.210;2023-08-24T16:29:53;28.30;14.20
530;DHT22;251;48.704;9.210;2023-08-24T16:32:20;28.10;15.10
530;DHT22;251;48.704;9.210;2023-08-24T16:34:46;28.00;15.00
530;DHT22;251;48.704;9.210;2023-08-24T16:37:14;27.90;15.70
530;DHT22;251;48.704;9.210;2023-08-24T16:39:41;27.80;15.90
530;DHT22;251;48.704;9.210;2023-08-24T16:42:08;27.80;16.60
530;DHT22;251;48.704;9.210;2023-08-24T16:44:35;27.80;15.60